createdAt,value
2022-12-10T00:01:43.730Z,76.43
2022-12-10T00:04:12.224Z,76.35
2022-12-10T00:06:40.677Z,78.20
2022-12-10T00:09:12.842Z,76.35
2022-12-10T00:11:41.264Z,76.75
2022-12-10T00:14:09.024Z,75.97
2022-12-10T00:16:38.501Z,77.95
2022-12-10T00:19:07.737Z,75.70
2022-12-10T00:21:36.918Z,72.28
2022-12-10T00:24:06.027Z,76.18
2022-12-10T00:26:36.184Z,71.15
2022-12-10T00:29:05.439Z,72.70
2022-12-10T00:31:35.947Z,72.88
2022-12-10T00:34:06.246Z,75.47
2022-12-10T00:36:38.124Z,75.07
2022-12-10T00:39:06.218Z,74.28
2022-12-10T00:41:33.706Z,77.28
2022-12-10T00:44:01.278Z,82.45
2022-12-10T00:46:29.208Z,87.03
2022-12-10T00:48:56.704Z,77.75
2022-12-10T00:51:26.645Z,75.82
2022-12-10T00:53:56.122Z,78.60
2022-12-10T00:56:26.722Z,76.68
2022-12-10T00:58:54.348Z,76.50
2022-12-10T01:01:25.462Z,74.90
2022-12-10T01:03:55.078Z,76.63
2022-12-10T01:06:23.978Z,75.28
2022-12-10T01:08:53.512Z,75.70
2022-12-10T01:11:26.119Z,73.22
2022-12-10T01:13:54.263Z,75.45
2022-12-10T01:16:28.948Z,73.40
2022-12-10T01:18:58.343Z,74.07
2022-12-10T01:21:32.012Z,74.93
2022-12-10T01:24:00.724Z,76.30
2022-12-10T01:26:36.936Z,72.32
2022-12-10T01:29:06.306Z,75.47
2022-12-10T01:31:40.348Z,74.88
2022-12-10T01:34:14.959Z,72.20
2022-12-10T01:36:44.998Z,72.93
2022-12-10T01:39:16.455Z,75.32
2022-12-10T01:41:47.127Z,75.18
2022-12-10T01:44:19.967Z,74.97
2022-12-10T01:46:50.691Z,74.30
2022-12-10T01:49:21.455Z,71.65
2022-12-10T01:51:53.897Z,74.15
2022-12-10T01:54:33.544Z,72.23
2022-12-10T01:57:05.648Z,73.45
2022-12-10T01:59:36.158Z,73.07
2022-12-10T02:02:13.279Z,75.25
2022-12-10T02:04:49.287Z,75.82
2022-12-10T02:07:28.307Z,73.38
2022-12-10T02:10:04.750Z,75.25
2022-12-10T02:12:40.664Z,73.30
2022-12-10T02:15:18.485Z,72.03
2022-12-10T02:17:53.997Z,73.68
2022-12-10T02:20:32.085Z,75.18
2022-12-10T02:23:10.965Z,72.75
2022-12-10T02:25:54.258Z,69.32
2022-12-10T02:28:46.256Z,70.22
2022-12-10T02:31:19.846Z,70.72
2022-12-10T02:33:52.757Z,70.82
2022-12-10T02:36:23.092Z,71.47
2022-12-10T02:38:54.015Z,69.95
2022-12-10T02:41:31.496Z,71.72
2022-12-10T02:44:03.957Z,70.63
2022-12-10T02:46:33.962Z,71.17
2022-12-10T02:49:05.167Z,69.68
2022-12-10T02:51:34.327Z,68.45
2022-12-10T02:54:42.446Z,71.60
2022-12-10T02:57:31.207Z,71.22
2022-12-10T03:00:08.036Z,69.65
2022-12-10T03:03:03.753Z,68.47
2022-12-10T03:05:42.073Z,66.90
2022-12-10T03:08:15.791Z,66.38
2022-12-10T03:10:46.820Z,65.50
2022-12-10T03:13:18.266Z,67.68
2022-12-10T03:15:47.195Z,68.10
2022-12-10T03:18:18.415Z,69.05
2022-12-10T03:20:48.179Z,65.50
2022-12-10T03:23:18.340Z,66.75
2022-12-10T03:25:48.039Z,69.43
2022-12-10T03:28:17.052Z,66.45
2022-12-10T03:30:54.090Z,64.05
2022-12-10T03:33:21.674Z,64.35
2022-12-10T03:35:51.217Z,65.93
2022-12-10T03:38:20.116Z,63.17
2022-12-10T03:40:47.560Z,65.07
2022-12-10T03:43:15.254Z,64.50
2022-12-10T03:45:43.545Z,62.53
2022-12-10T03:48:10.950Z,64.55
2022-12-10T03:50:38.388Z,62.58
2022-12-10T03:53:05.848Z,62.28
2022-12-10T03:55:34.130Z,62.13
2022-12-10T03:58:01.392Z,63.15
2022-12-10T04:00:34.615Z,63.92
2022-12-10T04:03:01.731Z,61.97
2022-12-10T04:05:29.179Z,63.25
2022-12-10T04:07:56.651Z,64.15
2022-12-10T04:10:24.105Z,60.95
2022-12-10T04:13:10.958Z,61.85
2022-12-10T04:16:03.655Z,61.38
2022-12-10T04:18:31.038Z,59.75
2022-12-10T04:21:22.728Z,60.92
2022-12-10T04:24:08.735Z,58.10
2022-12-10T04:26:54.608Z,60.65
2022-12-10T04:29:28.612Z,60.15
2022-12-10T04:31:56.424Z,61.15
2022-12-10T04:34:24.785Z,59.70
2022-12-10T04:36:52.669Z,60.05
2022-12-10T04:39:19.999Z,60.13
2022-12-10T04:41:49.215Z,60.45
2022-12-10T04:44:17.696Z,58.03
2022-12-10T04:46:45.652Z,58.42
2022-12-10T04:49:13.998Z,58.00
2022-12-10T04:51:42.084Z,60.35
2022-12-10T04:54:15.547Z,57.95
2022-12-10T04:56:44.779Z,59.85
2022-12-10T04:59:12.158Z,55.25
2022-12-10T05:01:39.624Z,59.15
2022-12-10T05:04:09.163Z,58.55
2022-12-10T05:06:36.938Z,55.90
2022-12-10T05:09:05.777Z,54.80
2022-12-10T05:11:34.076Z,54.60
2022-12-10T05:14:03.325Z,56.55
2022-12-10T05:16:33.654Z,55.90
2022-12-10T05:19:01.315Z,54.75
2022-12-10T05:21:51.189Z,54.70
2022-12-10T05:24:19.306Z,54.03
2022-12-10T05:26:46.734Z,51.42
2022-12-10T05:29:14.862Z,53.67
2022-12-10T05:31:41.926Z,67.43
2022-12-10T05:34:11.917Z,134.23
2022-12-10T05:36:40.126Z,116.43
2022-12-10T05:39:11.324Z,100.30
2022-12-10T05:41:40.272Z,109.60
2022-12-10T05:44:14.726Z,87.75
2022-12-10T05:46:41.912Z,73.35
2022-12-10T05:49:09.395Z,71.05
2022-12-10T05:51:43.833Z,82.13
2022-12-10T05:54:11.266Z,88.30
2022-12-10T05:56:38.770Z,88.80
2022-12-10T05:59:10.034Z,76.32
2022-12-10T06:01:42.134Z,88.40
2022-12-10T06:04:09.138Z,80.80
2022-12-10T06:06:39.991Z,82.40
2022-12-10T06:09:12.124Z,80.20
2022-12-10T06:11:39.147Z,70.35
2022-12-10T06:14:06.781Z,66.88
2022-12-10T06:16:34.161Z,60.33
2022-12-10T06:19:01.691Z,62.88
2022-12-10T06:21:29.041Z,60.60
2022-12-10T06:23:56.477Z,58.53
2022-12-10T06:26:26.888Z,56.67
2022-12-10T06:28:54.934Z,59.75
2022-12-10T06:31:22.924Z,58.03
2022-12-10T06:33:50.824Z,55.13
2022-12-10T06:36:19.018Z,50.05
2022-12-10T06:38:47.034Z,51.13
2022-12-10T06:41:16.818Z,47.03
2022-12-10T06:43:43.947Z,48.95
2022-12-10T06:46:14.575Z,49.45
2022-12-10T06:48:42.251Z,50.83
2022-12-10T06:51:11.519Z,54.70
2022-12-10T06:53:40.758Z,52.00
2022-12-10T06:56:12.188Z,52.03
2022-12-10T06:58:41.746Z,49.35
2022-12-10T07:01:15.397Z,52.45
2022-12-10T07:03:42.976Z,56.55
2022-12-10T07:06:12.510Z,53.70
2022-12-10T07:08:39.607Z,48.08
2022-12-10T07:11:08.930Z,46.63
2022-12-10T07:13:36.416Z,46.85
2022-12-10T07:16:16.845Z,46.78
2022-12-10T07:18:50.237Z,46.47
2022-12-10T07:21:25.298Z,49.10
2022-12-10T07:23:55.047Z,44.50
2022-12-10T07:26:23.087Z,44.70
2022-12-10T07:28:53.599Z,44.15
2022-12-10T07:31:22.503Z,42.53
2022-12-10T07:33:52.152Z,40.63
2022-12-10T07:36:20.874Z,42.72
2022-12-10T07:38:47.884Z,43.72
2022-12-10T07:41:16.262Z,42.13
2022-12-10T07:43:45.796Z,39.55
2022-12-10T07:46:17.460Z,46.08
2022-12-10T07:48:46.498Z,48.03
2022-12-10T07:51:15.063Z,47.58
2022-12-10T07:53:43.402Z,50.47
2022-12-10T07:56:13.035Z,52.78
2022-12-10T07:58:45.595Z,49.20
2022-12-10T08:01:18.353Z,51.47
2022-12-10T08:03:45.999Z,49.08
2022-12-10T08:06:18.495Z,41.15
2022-12-10T08:08:46.587Z,44.70
2022-12-10T08:11:15.072Z,50.08
2022-12-10T08:13:42.574Z,56.17
2022-12-10T08:16:17.532Z,63.72
2022-12-10T08:18:46.704Z,63.72
2022-12-10T08:21:20.424Z,51.60
2022-12-10T08:23:49.574Z,47.92
2022-12-10T08:26:19.315Z,41.58
2022-12-10T08:28:54.118Z,37.67
2022-12-10T08:31:23.241Z,37.08
2022-12-10T08:33:51.647Z,39.67
2022-12-10T08:36:20.007Z,39.13
2022-12-10T08:38:47.993Z,37.30
2022-12-10T08:41:19.415Z,39.75
2022-12-10T08:43:48.520Z,40.30
2022-12-10T08:46:16.990Z,38.65
2022-12-10T08:48:46.623Z,39.40
2022-12-10T08:51:17.269Z,38.30
2022-12-10T08:53:45.423Z,43.70
2022-12-10T08:56:13.828Z,46.13
2022-12-10T08:58:43.060Z,46.92
2022-12-10T09:01:13.256Z,47.63
2022-12-10T09:03:40.605Z,47.80
2022-12-10T09:06:14.782Z,50.47
2022-12-10T09:08:48.657Z,46.30
2022-12-10T09:11:23.576Z,39.08
2022-12-10T09:13:57.396Z,40.85
2022-12-10T09:16:36.532Z,38.88
2022-12-10T09:19:05.636Z,40.53
2022-12-10T09:21:33.124Z,45.47
2022-12-10T09:24:01.278Z,45.85
2022-12-10T09:26:28.644Z,41.65
2022-12-10T09:28:56.609Z,39.40
2022-12-10T09:31:24.209Z,41.42
2022-12-10T09:33:53.536Z,42.75
2022-12-10T09:36:22.414Z,44.60
2022-12-10T09:38:53.379Z,48.80
2022-12-10T09:41:45.277Z,49.72
2022-12-10T09:44:24.193Z,48.90
2022-12-10T09:46:58.075Z,44.03
2022-12-10T09:49:38.908Z,43.65
2022-12-10T09:52:16.556Z,42.95
2022-12-10T09:54:55.792Z,39.50
2022-12-10T09:57:32.795Z,38.05
2022-12-10T10:00:19.498Z,40.42
2022-12-10T10:02:51.048Z,40.90
2022-12-10T10:05:26.114Z,41.13
2022-12-10T10:08:02.285Z,38.55
2022-12-10T10:10:34.167Z,39.17
2022-12-10T10:13:10.308Z,41.95
2022-12-10T10:15:44.745Z,43.92
2022-12-10T10:18:32.748Z,44.08
2022-12-10T10:21:02.442Z,43.08
2022-12-10T10:23:29.916Z,45.45
2022-12-10T10:25:57.797Z,43.95
2022-12-10T10:28:24.906Z,39.53
2022-12-10T10:30:55.563Z,40.13
2022-12-10T10:33:22.878Z,40.28
2022-12-10T10:35:55.409Z,39.72
2022-12-10T10:38:27.735Z,45.47
2022-12-10T10:41:01.481Z,41.38
2022-12-10T10:43:42.653Z,37.95
2022-12-10T10:46:36.766Z,37.10
2022-12-10T10:49:33.155Z,42.78
2022-12-10T10:52:15.122Z,45.10
2022-12-10T10:54:46.326Z,41.85
2022-12-10T10:57:34.847Z,41.55
2022-12-10T11:00:23.681Z,40.22
2022-12-10T11:02:53.334Z,38.20
2022-12-10T11:05:36.372Z,43.35
2022-12-10T11:08:15.033Z,42.38
2022-12-10T11:10:56.432Z,43.72
2022-12-10T11:13:30.086Z,47.67
2022-12-10T11:16:12.214Z,49.53
2022-12-10T11:18:43.553Z,48.15
2022-12-10T11:21:13.594Z,44.33
2022-12-10T11:23:43.783Z,40.42
2022-12-10T11:26:38.289Z,40.58
2022-12-10T11:29:33.684Z,38.72
2022-12-10T11:32:00.762Z,41.08
2022-12-10T11:34:58.370Z,42.58
2022-12-10T11:37:34.491Z,40.90
2022-12-10T11:40:15.463Z,45.63
2022-12-10T11:43:21.434Z,52.10
2022-12-10T11:46:00.800Z,50.42
2022-12-10T11:48:41.856Z,47.45
2022-12-10T11:51:46.265Z,44.58
2022-12-10T11:54:42.090Z,43.70
2022-12-10T11:57:34.742Z,43.30
2022-12-10T12:00:14.871Z,42.92
2022-12-10T12:02:59.264Z,40.20
2022-12-10T12:05:48.775Z,38.90
2022-12-10T12:08:40.657Z,41.67
2022-12-10T12:11:40.172Z,42.38
2022-12-10T12:14:28.225Z,44.97
2022-12-10T12:17:20.889Z,44.97
2022-12-10T12:19:53.573Z,42.08
2022-12-10T12:22:32.285Z,44.88
2022-12-10T12:25:12.339Z,45.72
2022-12-10T12:27:50.872Z,47.55
2022-12-10T12:30:24.177Z,48.92
2022-12-10T12:33:16.579Z,47.03
2022-12-10T12:36:13.342Z,47.20
2022-12-10T12:39:09.619Z,49.90
2022-12-10T12:41:48.478Z,52.65
2022-12-10T12:44:44.958Z,54.55
2022-12-10T12:47:30.657Z,55.53
2022-12-10T12:50:00.242Z,59.83
2022-12-10T12:52:46.385Z,65.90
2022-12-10T12:55:40.038Z,67.78
2022-12-10T12:58:14.133Z,69.78
2022-12-10T13:00:47.714Z,63.38
2022-12-10T13:03:33.758Z,55.45
2022-12-10T13:06:23.400Z,52.97
2022-12-10T13:08:59.747Z,58.63
2022-12-10T13:11:37.613Z,54.75
2022-12-10T13:14:11.046Z,56.17
2022-12-10T13:19:20.923Z,58.35
2022-12-10T13:22:02.484Z,53.88
2022-12-10T13:25:00.175Z,48.97
2022-12-10T13:27:35.277Z,55.15
2022-12-10T13:30:05.213Z,51.90
2022-12-10T13:32:34.946Z,55.13
2022-12-10T13:35:11.064Z,52.00
2022-12-10T13:37:51.358Z,49.17
2022-12-10T13:40:31.348Z,52.60
2022-12-10T13:43:56.717Z,51.80
2022-12-10T13:46:35.680Z,51.05
2022-12-10T13:49:05.674Z,50.80
2022-12-10T13:51:49.559Z,52.20
2022-12-10T13:54:49.722Z,51.15
2022-12-10T13:57:27.457Z,53.53
2022-12-10T14:00:30.496Z,54.50
2022-12-10T14:03:03.934Z,78.80
2022-12-10T14:05:48.562Z,61.67
2022-12-10T14:08:40.065Z,59.72
2022-12-10T14:11:21.835Z,86.78
2022-12-10T14:13:54.198Z,69.85
2022-12-10T14:16:25.119Z,58.20
2022-12-10T14:19:00.949Z,55.22
2022-12-10T14:21:34.155Z,53.00
2022-12-10T14:24:01.419Z,55.88
2022-12-10T14:26:32.509Z,51.92
2022-12-10T14:29:27.416Z,53.38
2022-12-10T14:31:58.351Z,54.17
2022-12-10T14:34:30.069Z,56.53
2022-12-10T14:37:03.252Z,54.40
2022-12-10T14:39:34.545Z,56.67
2022-12-10T14:42:11.926Z,57.83
2022-12-10T14:44:41.418Z,57.88
2022-12-10T14:47:20.482Z,55.90
2022-12-10T14:49:51.347Z,54.95
2022-12-10T14:52:25.585Z,56.55
2022-12-10T14:54:54.177Z,53.85
2022-12-10T14:57:32.375Z,50.97
2022-12-10T15:00:19.518Z,51.42
2022-12-10T15:02:51.137Z,56.13
2022-12-10T15:05:23.059Z,56.45
2022-12-10T15:07:58.994Z,51.67
2022-12-10T15:10:41.895Z,60.03
2022-12-10T15:13:21.540Z,56.85
2022-12-10T15:15:54.043Z,63.67
2022-12-10T15:18:28.838Z,63.78
2022-12-10T15:21:22.249Z,63.28
2022-12-10T15:23:52.560Z,59.40
2022-12-10T15:26:21.654Z,57.78
2022-12-10T15:29:28.420Z,64.53
2022-12-10T15:31:59.532Z,66.00
2022-12-10T15:34:36.132Z,58.28
2022-12-10T15:37:06.027Z,59.80
2022-12-10T15:39:54.539Z,58.45
2022-12-10T15:42:45.111Z,58.38
2022-12-10T15:45:24.667Z,58.30
2022-12-10T15:47:52.950Z,56.22
2022-12-10T15:50:20.558Z,55.42
2022-12-10T15:52:49.598Z,57.75
2022-12-10T15:55:19.507Z,59.35
2022-12-10T15:57:51.087Z,57.70
2022-12-10T16:00:25.235Z,54.88
2022-12-10T16:03:00.783Z,54.58
2022-12-10T16:05:36.510Z,55.30
2022-12-10T16:08:18.845Z,56.13
2022-12-10T16:10:49.044Z,57.10
2022-12-10T16:13:21.528Z,59.47
2022-12-10T16:16:15.889Z,60.15
2022-12-10T16:18:43.819Z,60.05
2022-12-10T16:21:11.865Z,59.00
2022-12-10T16:23:40.938Z,59.60
2022-12-10T16:26:20.653Z,60.88
2022-12-10T16:28:49.461Z,59.55
2022-12-10T16:31:22.259Z,60.40
2022-12-10T16:33:53.968Z,59.08
2022-12-10T16:36:22.181Z,62.78
2022-12-10T16:38:50.180Z,60.05
2022-12-10T16:41:23.952Z,58.92
2022-12-10T16:43:54.444Z,59.53
2022-12-10T16:46:22.663Z,57.78
2022-12-10T16:48:51.606Z,60.33
2022-12-10T16:51:24.770Z,61.42
2022-12-10T16:53:52.518Z,62.17
2022-12-10T16:56:20.500Z,64.05
2022-12-10T16:58:49.863Z,62.00
2022-12-10T17:01:38.970Z,61.75
2022-12-10T17:04:06.601Z,63.78
2022-12-10T17:06:34.115Z,65.50
2022-12-10T17:09:01.979Z,64.07
2022-12-10T17:11:51.139Z,61.35
2022-12-10T17:14:32.281Z,59.70
2022-12-10T17:17:06.788Z,56.85
2022-12-10T17:19:36.983Z,56.78
2022-12-10T17:22:05.943Z,54.92
2022-12-10T17:24:33.520Z,55.78
2022-12-10T17:27:20.929Z,52.70
2022-12-10T17:29:54.840Z,51.70
2022-12-10T17:32:23.678Z,52.97
2022-12-10T17:34:50.977Z,52.58
2022-12-10T17:37:20.592Z,51.08
2022-12-10T17:39:47.907Z,50.85
2022-12-10T17:42:16.368Z,51.55
2022-12-10T17:44:45.721Z,52.83
2022-12-10T17:47:24.478Z,56.72
2022-12-10T17:49:53.605Z,54.17
2022-12-10T17:52:28.774Z,53.92
2022-12-10T17:54:57.470Z,49.92
2022-12-10T17:57:27.086Z,50.35
2022-12-10T17:59:55.577Z,51.08
2022-12-10T18:02:24.502Z,50.33
2022-12-10T18:04:51.948Z,51.10
2022-12-10T18:07:20.085Z,50.80
2022-12-10T18:09:48.543Z,48.47
2022-12-10T18:12:16.045Z,53.50
2022-12-10T18:14:44.006Z,51.55
2022-12-10T18:17:19.535Z,51.13
2022-12-10T18:19:53.305Z,51.60
2022-12-10T18:22:21.247Z,52.58
2022-12-10T18:24:50.134Z,53.50
2022-12-10T18:27:19.515Z,55.72
2022-12-10T18:29:48.019Z,53.22
2022-12-10T18:32:22.808Z,56.88
2022-12-10T18:34:50.539Z,55.00
2022-12-10T18:37:18.289Z,51.25
2022-12-10T18:39:47.867Z,55.25
2022-12-10T18:42:15.155Z,53.33
2022-12-10T18:44:43.020Z,52.53
2022-12-10T18:47:13.457Z,52.00
2022-12-10T18:49:41.909Z,53.28
2022-12-10T18:52:12.809Z,55.70
2022-12-10T18:54:41.761Z,54.50
2022-12-10T19:00:03.787Z,94.82
2022-12-10T19:02:34.057Z,138.27
2022-12-10T19:05:01.809Z,151.70
2022-12-10T19:07:29.868Z,106.07
2022-12-10T19:09:58.327Z,82.35
2022-12-10T19:12:26.018Z,64.38
2022-12-10T19:14:54.425Z,53.97
2022-12-10T19:17:23.944Z,54.95
2022-12-10T19:19:51.933Z,56.17
2022-12-10T19:22:20.384Z,54.47
2022-12-10T19:24:50.026Z,53.28
2022-12-10T19:27:18.106Z,50.72
2022-12-10T19:29:47.084Z,51.70
2022-12-10T19:32:15.269Z,51.72
2022-12-10T19:34:43.283Z,47.30
2022-12-10T19:37:12.611Z,48.15
2022-12-10T19:39:41.185Z,47.78
2022-12-10T19:42:09.420Z,45.83
2022-12-10T19:44:39.560Z,42.85
2022-12-10T19:47:20.220Z,43.10
2022-12-10T19:49:49.710Z,41.97
2022-12-10T19:52:20.326Z,43.13
2022-12-10T19:54:48.184Z,42.55
2022-12-10T19:57:16.974Z,41.58
2022-12-10T19:59:46.982Z,43.42
2022-12-10T20:02:16.273Z,39.53
2022-12-10T20:04:44.956Z,36.92
2022-12-10T20:07:13.915Z,36.85
2022-12-10T20:09:42.085Z,42.50
2022-12-10T20:12:11.044Z,42.85
2022-12-10T20:14:40.982Z,38.17
2022-12-10T20:17:15.165Z,44.45
2022-12-10T20:19:46.484Z,40.67
2022-12-10T20:22:15.836Z,44.65
2022-12-10T20:24:43.893Z,42.90
2022-12-10T20:27:18.399Z,44.40
2022-12-10T20:29:47.816Z,43.75
2022-12-10T20:32:16.486Z,42.08
2022-12-10T20:34:44.786Z,41.78
2022-12-10T20:37:14.618Z,38.88
2022-12-10T20:39:49.556Z,38.22
2022-12-10T20:42:27.600Z,38.70
2022-12-10T20:44:56.001Z,37.65
2022-12-10T20:47:24.035Z,37.03
2022-12-10T20:49:54.645Z,39.13
2022-12-10T20:52:25.442Z,37.60
2022-12-10T20:54:54.958Z,36.70
2022-12-10T20:57:24.615Z,37.28
2022-12-10T20:59:52.360Z,35.08
2022-12-10T21:02:20.579Z,36.70
2022-12-10T21:04:48.649Z,36.88
2022-12-10T21:07:16.656Z,36.08
2022-12-10T21:09:45.827Z,39.25
2022-12-10T21:12:14.783Z,37.58
2022-12-10T21:14:52.277Z,37.22
2022-12-10T21:17:21.321Z,39.00
2022-12-10T21:19:49.367Z,41.97
2022-12-10T21:22:24.163Z,39.42
2022-12-10T21:24:52.756Z,37.75
2022-12-10T21:27:26.378Z,37.83
2022-12-10T21:29:54.513Z,37.00
2022-12-10T21:32:22.426Z,36.80
2022-12-10T21:34:50.963Z,38.13
2022-12-10T21:37:18.464Z,37.67
2022-12-10T21:39:46.479Z,37.67
2022-12-10T21:42:33.742Z,36.17
2022-12-10T21:45:01.824Z,38.58
2022-12-10T21:47:29.760Z,37.15
2022-12-10T21:49:57.120Z,37.53
2022-12-10T21:52:24.698Z,37.35
2022-12-10T21:54:54.452Z,37.90
2022-12-10T21:57:22.275Z,38.42
2022-12-10T21:59:49.950Z,42.90
2022-12-10T22:02:17.841Z,59.20
2022-12-10T22:04:45.293Z,52.40
2022-12-10T22:07:14.496Z,51.15
2022-12-10T22:09:41.958Z,46.55
2022-12-10T22:12:09.427Z,44.20
2022-12-10T22:14:37.068Z,45.47
2022-12-10T22:17:04.443Z,44.53
2022-12-10T22:19:32.722Z,43.60
2022-12-10T22:22:00.188Z,44.75
2022-12-10T22:24:27.843Z,43.45
2022-12-10T22:26:56.351Z,41.53
2022-12-10T22:29:26.457Z,44.00
2022-12-10T22:31:54.909Z,40.78
2022-12-10T22:34:23.246Z,39.67
2022-12-10T22:36:50.908Z,42.03
2022-12-10T22:39:25.441Z,42.40
2022-12-10T22:41:52.738Z,42.70
2022-12-10T22:44:20.293Z,42.63
2022-12-10T22:46:48.806Z,42.60
2022-12-10T22:49:16.748Z,44.10
2022-12-10T22:51:45.110Z,47.90
2022-12-10T22:54:12.539Z,42.05
2022-12-10T22:56:40.047Z,42.97
2022-12-10T22:59:09.986Z,42.25
2022-12-10T23:01:37.436Z,43.42
2022-12-10T23:04:04.770Z,43.03
2022-12-10T23:06:31.824Z,40.20
2022-12-10T23:08:59.229Z,40.58
2022-12-10T23:11:26.578Z,41.15
2022-12-10T23:13:55.770Z,40.67
2022-12-10T23:16:25.403Z,39.58
2022-12-10T23:18:52.782Z,39.65
2022-12-10T23:21:24.412Z,40.70
2022-12-10T23:23:52.624Z,38.88
2022-12-10T23:26:22.422Z,39.17
2022-12-10T23:28:50.535Z,40.33
2022-12-10T23:31:18.985Z,39.33
2022-12-10T23:33:46.384Z,39.03
2022-12-10T23:36:15.644Z,39.40
2022-12-10T23:38:43.099Z,38.45
2022-12-10T23:41:12.284Z,38.33
2022-12-10T23:43:39.698Z,37.55
2022-12-10T23:46:08.897Z,37.85
2022-12-10T23:48:36.040Z,36.22
2022-12-10T23:51:03.964Z,36.03
2022-12-10T23:53:32.133Z,36.60
2022-12-10T23:56:16.849Z,35.28
2022-12-10T23:58:45.086Z,34.45
